»·PEaware :: N106MR KGEG-KBFI

N106MR :: KGEG-KBFI

FLIGHT INFORMATION

Flight Status: Arrived
Operator: Privately registered:
United States
More flights under this callsign
Pilot: Michael R. (16974)
Aircraft: MITSUBISHI MU-2 MARQUISE
(MU2)
More flights by this aircraft type
Origin: KGEG Spokane Intl
United States
Destination: KBFI Boeing Field/King Co Intl
United States
More flights between these airports :: More routes between these airports
Route: TEMPL GLASR1
File this flight plan on PilotEdge
Remarks:
Altitude:
(Current/Filed)
22,000ft
Speed:
(Current/Filed)
270kts
Departed: 11-Jan-18 11:03 PM
Arrived: 11-Jan-18 11:59 PM
Distance/Time
Traveled:
193nm/0:56
Distance/Time
To Go:
Arrived

Flight Plot

Page will automatically refresh every two minutes.

Flight plan parsing failed; only flown route is shown


Map Options




Map Legend


Flown Route
Filed Route
Departure Airport
Arrival Airport
Navaid (VOR, NDB)
Fix

Horizontal Profiles

Position Reports

Time Latitude Longitude Heading Altitude Ground
Speed
11-Jan-18 22:37 47.623773 -117.524463 269 2350ft 0kts
11-Jan-18 22:38 47.623773 -117.524463 269 2350ft 0kts
11-Jan-18 22:39 47.623773 -117.524463 269 2350ft 0kts
11-Jan-18 22:40 47.623774 -117.524463 271 2350ft 0kts
11-Jan-18 22:41 47.623774 -117.524463 271 2350ft 0kts
11-Jan-18 22:42 47.623823 -117.524852 301 2351ft 0kts
11-Jan-18 22:43 47.623832 -117.524874 301 2351ft 0kts
11-Jan-18 22:44 47.623832 -117.524874 301 2351ft 0kts
11-Jan-18 22:45 47.623832 -117.524874 301 2351ft 0kts
11-Jan-18 22:46 47.623833 -117.524874 301 2351ft 0kts
11-Jan-18 22:47 47.623833 -117.524874 301 2351ft 0kts
11-Jan-18 22:48 47.623833 -117.524874 301 2351ft 0kts
11-Jan-18 22:49 47.623833 -117.524874 301 2351ft 0kts
11-Jan-18 22:50 47.623833 -117.524874 301 2351ft 0kts
11-Jan-18 22:51 47.623833 -117.524874 301 2351ft 0kts
11-Jan-18 22:52 47.623833 -117.524874 301 2351ft 0kts
11-Jan-18 22:53 47.623833 -117.524874 301 2351ft 0kts
11-Jan-18 22:54 47.623836 -117.524882 302 2351ft 0kts
11-Jan-18 22:55 47.623836 -117.524883 302 2351ft 0kts
11-Jan-18 22:56 47.623836 -117.524883 302 2351ft 0kts
11-Jan-18 22:57 47.623836 -117.524883 302 2351ft 0kts
11-Jan-18 22:58 47.623836 -117.524883 302 2351ft 0kts
11-Jan-18 22:59 47.623836 -117.524883 302 2351ft 0kts
11-Jan-18 23:00 47.623836 -117.524883 302 2351ft 0kts
11-Jan-18 23:01 47.623836 -117.524883 302 2351ft 0kts
11-Jan-18 23:02 47.623836 -117.524883 302 2351ft 0kts
11-Jan-18 23:03 47.623836 -117.524883 302 2351ft 0kts
11-Jan-18 23:04 47.625668 -117.523163 44 2345ft 19kts
11-Jan-18 23:05 47.628858 -117.518376 45 2331ft 21kts
11-Jan-18 23:06 47.630190 -117.517049 327 2326ft 0kts
11-Jan-18 23:07 47.630532 -117.517518 312 2325ft 0kts
11-Jan-18 23:08 47.630894 -117.518671 236 2326ft 12kts
11-Jan-18 23:09 47.618016 -117.538491 229 2761ft 146kts
11-Jan-18 23:10 47.580284 -117.584158 220 4117ft 201kts
11-Jan-18 23:11 47.534695 -117.634111 225 6335ft 204kts
11-Jan-18 23:12 47.537607 -117.705611 282 8482ft 185kts
11-Jan-18 23:13 47.547462 -117.781899 280 10398ft 195kts
11-Jan-18 23:14 47.556877 -117.862993 280 12054ft 214kts
11-Jan-18 23:15 47.568042 -117.961213 280 12084ft 257kts
11-Jan-18 23:16 47.579401 -118.062053 281 13775ft 231kts
11-Jan-18 23:17 47.589664 -118.153590 281 15884ft 225kts
11-Jan-18 23:18 47.599835 -118.245072 281 17869ft 226kts
11-Jan-18 23:19 47.609950 -118.336956 281 19846ft 226kts
11-Jan-18 23:20 47.620069 -118.429612 282 20983ft 234kts
11-Jan-18 23:21 47.630706 -118.527530 281 20984ft 244kts
11-Jan-18 23:22 47.640845 -118.621554 282 21879ft 220kts
11-Jan-18 23:23 47.650507 -118.711869 281 22041ft 246kts
11-Jan-18 23:24 47.661542 -118.816143 280 22037ft 264kts
11-Jan-18 23:25 47.672969 -118.925214 280 22035ft 271kts
11-Jan-18 23:26 47.684475 -119.036055 280 22025ft 273kts
11-Jan-18 23:27 47.695929 -119.147386 280 22024ft 274kts
11-Jan-18 23:28 47.707333 -119.259333 280 22023ft 274kts
11-Jan-18 23:29 47.718588 -119.370851 280 22024ft 273kts
11-Jan-18 23:30 47.729691 -119.482663 279 22021ft 273kts
11-Jan-18 23:31 47.738710 -119.594371 278 22020ft 273kts
11-Jan-18 23:32 47.747052 -119.699964 278 22026ft 273kts
11-Jan-18 23:33 47.755832 -119.812389 277 22044ft 275kts
11-Jan-18 23:34 47.764531 -119.925447 277 22044ft 276kts
11-Jan-18 23:35 47.773160 -120.039019 277 22043ft 277kts
11-Jan-18 23:36 47.781682 -120.152579 277 22042ft 277kts
11-Jan-18 23:37 47.790065 -120.266231 278 22043ft 276kts
11-Jan-18 23:38 47.798261 -120.378524 278 22039ft 272kts
11-Jan-18 23:39 47.806284 -120.489959 278 22039ft 270kts
11-Jan-18 23:40 47.814127 -120.600489 278 22038ft 269kts
11-Jan-18 23:41 47.821250 -120.702295 278 22040ft 240kts
11-Jan-18 23:42 47.828113 -120.801563 279 22072ft 243kts
11-Jan-18 23:43 47.834916 -120.901540 278 21216ft 245kts
11-Jan-18 23:44 47.841637 -121.001300 278 20162ft 240kts
11-Jan-18 23:45 47.848141 -121.099115 278 19014ft 235kts
11-Jan-18 23:46 47.854429 -121.194658 277 17634ft 231kts
11-Jan-18 23:47 47.860714 -121.290993 277 16509ft 241kts
11-Jan-18 23:48 47.867349 -121.395357 276 15028ft 266kts
11-Jan-18 23:49 47.874338 -121.506387 275 13504ft 276kts
11-Jan-18 23:50 47.881049 -121.614158 274 12009ft 246kts
11-Jan-18 23:51 47.883330 -121.700890 239 11943ft 189kts
11-Jan-18 23:52 47.845574 -121.758914 226 11023ft 219kts
11-Jan-18 23:53 47.798364 -121.823273 224 9797ft 242kts
11-Jan-18 23:54 47.755109 -121.900600 268 8067ft 257kts
11-Jan-18 23:55 47.760338 -122.006233 275 6975ft 241kts
11-Jan-18 23:56 47.766076 -122.106388 275 4885ft 242kts
11-Jan-18 23:57 47.771127 -122.204514 275 2978ft 235kts
11-Jan-18 23:58 47.775540 -122.295170 275 2172ft 193kts
11-Jan-18 23:59 47.760045 -122.358946 236 2170ft 154kts
12-Jan-18 00:00 47.729361 -122.418860 232 2193ft 203kts
12-Jan-18 00:01 47.674320 -122.425278 153 2457ft 216kts
12-Jan-18 00:02 47.621395 -122.379967 153 1832ft 195kts
12-Jan-18 00:03 47.584626 -122.348723 154 999ft 109kts
12-Jan-18 00:04 47.563258 -122.330694 153 491ft 110kts
12-Jan-18 00:05 47.534535 -122.306337 131 16ft 22kts
12-Jan-18 00:06 47.533865 -122.303926 96 19ft 8kts
12-Jan-18 00:07 47.533909 -122.301411 130 20ft 5kts
12-Jan-18 00:08 47.533247 -122.301306 244 20ft 0kts
12-Jan-18 00:09 47.533247 -122.301306 244 20ft 0kts
12-Jan-18 00:10 47.533247 -122.301306 244 20ft 0kts
12-Jan-18 00:11 47.533247 -122.301306 244 20ft 0kts
12-Jan-18 00:12 47.533247 -122.301306 244 20ft 0kts
12-Jan-18 00:13 47.533247 -122.301306 244 20ft 0kts
12-Jan-18 00:14 47.533236 -122.301341 244 20ft 0kts
12-Jan-18 00:15 47.533236 -122.301340 244 20ft 0kts

Navigation Log

Ident Type
Flight plan parsing failed, navigation log unavailable